createdAt,value
2022-08-30T00:00:10.147Z,15.8
2022-08-30T00:01:20.266Z,15.8
2022-08-30T00:02:30.622Z,15.8
2022-08-30T00:03:40.504Z,15.8
2022-08-30T00:04:50.610Z,15.8
2022-08-30T00:06:00.734Z,15.8
2022-08-30T00:07:11.085Z,15.9
2022-08-30T00:08:19.996Z,15.9
2022-08-30T00:09:30.100Z,15.9
2022-08-30T00:10:40.461Z,15.9
2022-08-30T00:11:50.333Z,15.8
2022-08-30T00:13:00.452Z,15.8
2022-08-30T00:14:10.820Z,15.8
2022-08-30T00:15:20.688Z,15.9
2022-08-30T00:16:30.814Z,15.9
2022-08-30T00:17:40.924Z,15.9
2022-08-30T00:18:51.277Z,15.9
2022-08-30T00:20:01.161Z,15.8
2022-08-30T00:21:11.524Z,15.8
2022-08-30T00:22:21.392Z,15.8
2022-08-30T00:23:30.530Z,15.8
2022-08-30T00:24:40.888Z,15.8
2022-08-30T00:25:50.766Z,15.8
2022-08-30T00:27:00.874Z,15.8
2022-08-30T00:28:11.234Z,15.8
2022-08-30T00:29:21.111Z,15.8
2022-08-30T00:30:31.485Z,15.8
2022-08-30T00:31:41.596Z,15.8
2022-08-30T00:32:51.472Z,15.8
2022-08-30T00:34:01.580Z,15.8
2022-08-30T00:35:11.707Z,15.8
2022-08-30T00:36:21.825Z,15.8
2022-08-30T00:37:31.932Z,15.8
2022-08-30T00:38:41.070Z,15.8
2022-08-30T00:39:51.195Z,15.8
2022-08-30T00:41:01.304Z,15.8
2022-08-30T00:42:11.434Z,15.8
2022-08-30T00:44:31.664Z,15.8
2022-08-30T00:45:41.770Z,15.8
2022-08-30T00:46:52.136Z,15.8
2022-08-30T00:48:02.007Z,15.8
2022-08-30T00:49:12.129Z,15.8
2022-08-30T00:50:22.258Z,15.8
2022-08-30T00:51:32.606Z,15.8
2022-08-30T00:52:42.475Z,15.8
2022-08-30T00:53:51.859Z,15.8
2022-08-30T00:55:01.727Z,15.8
2022-08-30T00:56:11.852Z,15.8
2022-08-30T00:58:32.082Z,15.8
2022-08-30T01:00:51.348Z,15.8
2022-08-30T01:03:10.618Z,15.8
2022-08-30T01:05:29.876Z,15.8
2022-08-30T01:06:39.257Z,15.8
2022-08-30T01:07:48.394Z,15.8
2022-08-30T01:08:58.516Z,15.7
2022-08-30T01:10:08.629Z,15.8
2022-08-30T01:11:18.521Z,15.8
2022-08-30T01:12:28.639Z,15.7
2022-08-30T01:13:38.746Z,15.7
2022-08-30T01:14:48.876Z,15.7
2022-08-30T01:15:58.984Z,15.7
2022-08-30T01:17:09.094Z,15.7
2022-08-30T01:18:19.213Z,15.7
2022-08-30T01:19:28.631Z,15.8
2022-08-30T01:20:37.491Z,15.8
2022-08-30T01:21:47.609Z,15.8
2022-08-30T01:22:57.728Z,15.7
2022-08-30T01:24:07.853Z,15.7
2022-08-30T01:25:17.966Z,15.7
2022-08-30T01:26:28.321Z,15.7
2022-08-30T01:27:38.200Z,15.7
2022-08-30T01:28:48.326Z,15.7
2022-08-30T01:31:08.788Z,15.7
2022-08-30T01:32:18.655Z,15.7
2022-08-30T01:33:28.759Z,15.7
2022-08-30T01:34:38.881Z,15.7
2022-08-30T01:35:48.273Z,15.7
2022-08-30T01:36:58.128Z,15.7
2022-08-30T01:38:08.509Z,15.7
2022-08-30T01:39:18.375Z,15.7
2022-08-30T01:40:28.738Z,15.7
2022-08-30T01:41:38.861Z,15.7
2022-08-30T01:42:48.721Z,15.7
2022-08-30T01:43:59.092Z,15.7
2022-08-30T01:45:08.949Z,15.7
2022-08-30T01:46:19.073Z,15.7
2022-08-30T01:47:29.201Z,15.7
2022-08-30T01:48:39.306Z,15.7
2022-08-30T01:49:49.685Z,15.7
2022-08-30T01:50:58.818Z,15.7
2022-08-30T01:52:08.932Z,15.7
2022-08-30T01:54:28.904Z,15.7
2022-08-30T01:55:39.029Z,15.7
2022-08-30T01:56:49.401Z,15.7
2022-08-30T01:59:09.648Z,15.7
2022-08-30T02:01:29.618Z,15.7
2022-08-30T02:02:39.021Z,15.7
2022-08-30T02:03:48.145Z,15.7
2022-08-30T02:04:58.002Z,15.7
2022-08-30T02:06:08.384Z,15.7
2022-08-30T02:07:18.256Z,15.7
2022-08-30T02:08:28.615Z,15.7
2022-08-30T02:09:38.736Z,15.7
2022-08-30T02:10:48.597Z,15.7
2022-08-30T02:11:58.978Z,15.7
2022-08-30T02:13:08.829Z,15.7
2022-08-30T02:14:19.206Z,15.7
2022-08-30T02:15:28.093Z,15.7
2022-08-30T02:16:37.231Z,15.7
2022-08-30T02:17:47.603Z,15.6
2022-08-30T02:18:57.462Z,15.6
2022-08-30T02:20:07.579Z,15.6
2022-08-30T02:21:17.704Z,15.6
2022-08-30T02:22:28.071Z,15.6
2022-08-30T02:23:37.946Z,15.6
2022-08-30T02:24:48.308Z,15.6
2022-08-30T02:25:58.431Z,15.6
2022-08-30T02:27:08.280Z,15.7
2022-08-30T02:28:18.657Z,15.6
2022-08-30T02:29:28.780Z,15.6
2022-08-30T02:30:38.641Z,15.6
2022-08-30T02:31:47.779Z,15.6
2022-08-30T02:32:58.149Z,15.6
2022-08-30T02:34:08.003Z,15.6
2022-08-30T02:35:18.126Z,15.6
2022-08-30T02:36:28.245Z,15.7
2022-08-30T02:37:38.363Z,15.7
2022-08-30T02:38:48.741Z,15.6
2022-08-30T02:39:58.592Z,15.6
2022-08-30T02:41:08.715Z,15.6
2022-08-30T02:42:18.834Z,15.6
2022-08-30T02:43:29.206Z,15.6
2022-08-30T02:44:39.319Z,15.6
2022-08-30T02:45:49.445Z,15.6
2022-08-30T02:46:58.313Z,15.6
2022-08-30T02:48:08.689Z,15.6
2022-08-30T02:49:18.548Z,15.6
2022-08-30T02:50:28.922Z,15.6
2022-08-30T02:51:38.784Z,15.6
2022-08-30T02:52:48.900Z,15.6
2022-08-30T02:53:59.024Z,15.6
2022-08-30T02:55:09.404Z,15.6
2022-08-30T02:57:29.385Z,15.6
2022-08-30T02:58:39.489Z,15.6
2022-08-30T02:59:49.612Z,15.6
2022-08-30T03:00:59.985Z,15.6
2022-08-30T03:02:08.864Z,15.6
2022-08-30T03:04:29.092Z,15.6
2022-08-30T03:05:39.470Z,15.6
2022-08-30T03:06:49.337Z,15.6
2022-08-30T03:07:59.455Z,15.6
2022-08-30T03:09:09.578Z,15.6
2022-08-30T03:10:19.681Z,15.6
2022-08-30T03:11:29.801Z,15.6
2022-08-30T03:12:39.925Z,15.6
2022-08-30T03:13:50.300Z,15.6
2022-08-30T03:15:00.158Z,15.6
2022-08-30T03:16:10.535Z,15.6
2022-08-30T03:17:19.400Z,15.6
2022-08-30T03:18:29.524Z,15.6
2022-08-30T03:19:39.647Z,15.6
2022-08-30T03:20:49.768Z,15.6
2022-08-30T03:21:59.870Z,15.6
2022-08-30T03:23:09.995Z,15.6
2022-08-30T03:24:20.372Z,15.6
2022-08-30T03:25:30.227Z,15.6
2022-08-30T03:26:40.351Z,15.6
2022-08-30T03:27:50.724Z,15.6
2022-08-30T03:29:00.584Z,15.6
2022-08-30T03:30:10.709Z,15.6
2022-08-30T03:31:20.822Z,15.6
2022-08-30T03:32:29.943Z,15.6
2022-08-30T03:33:40.071Z,15.6
2022-08-30T03:34:50.191Z,15.6
2022-08-30T03:36:00.312Z,15.6
2022-08-30T03:37:10.415Z,15.6
2022-08-30T03:38:20.545Z,15.6
2022-08-30T03:39:30.660Z,15.6
2022-08-30T03:40:40.765Z,15.6
2022-08-30T03:41:50.884Z,15.6
2022-08-30T03:43:01.009Z,15.6
2022-08-30T03:44:11.129Z,15.6
2022-08-30T03:45:21.236Z,15.6
2022-08-30T03:46:31.355Z,15.6
2022-08-30T03:47:40.495Z,15.5
2022-08-30T03:48:50.619Z,15.5
2022-08-30T03:50:00.721Z,15.5
2022-08-30T03:51:10.850Z,15.5
2022-08-30T03:52:20.971Z,15.5
2022-08-30T03:53:31.079Z,15.5
2022-08-30T03:54:41.462Z,15.5
2022-08-30T03:55:51.578Z,15.5
2022-08-30T03:57:01.705Z,15.4
2022-08-30T03:58:11.557Z,15.4
2022-08-30T04:00:31.785Z,15.4
2022-08-30T04:01:41.904Z,15.4
2022-08-30T04:02:51.036Z,15.4
2022-08-30T04:04:01.161Z,15.5
2022-08-30T04:05:11.267Z,15.4
2022-08-30T04:07:31.515Z,15.5
2022-08-30T04:08:41.619Z,15.4
2022-08-30T04:09:51.749Z,15.4
2022-08-30T04:11:01.854Z,15.4
2022-08-30T04:12:11.980Z,15.4
2022-08-30T04:14:32.216Z,15.5
2022-08-30T04:15:41.362Z,15.5
2022-08-30T04:16:50.491Z,15.5
2022-08-30T04:18:00.615Z,15.5
2022-08-30T04:19:10.726Z,15.5
2022-08-30T04:21:30.956Z,15.5
2022-08-30T04:22:41.083Z,15.5
2022-08-30T04:23:51.199Z,15.5
2022-08-30T04:25:01.320Z,15.6
2022-08-30T04:26:11.427Z,15.6
2022-08-30T04:27:21.551Z,15.6
2022-08-30T04:28:31.673Z,15.6
2022-08-30T04:29:41.779Z,15.6
2022-08-30T04:30:51.898Z,15.6
2022-08-30T04:32:01.303Z,15.6
2022-08-30T04:33:11.143Z,15.6
2022-08-30T04:34:21.262Z,15.7
2022-08-30T04:35:31.379Z,15.7
2022-08-30T04:36:41.502Z,15.7
2022-08-30T04:37:51.625Z,15.7
2022-08-30T04:39:01.732Z,15.7
2022-08-30T04:40:11.852Z,15.7
2022-08-30T04:41:21.003Z,15.8
2022-08-30T04:42:30.135Z,15.8
2022-08-30T04:43:40.244Z,15.8
2022-08-30T04:44:50.371Z,15.8
2022-08-30T04:46:00.746Z,15.8
2022-08-30T04:47:10.598Z,15.8
2022-08-30T04:48:20.723Z,15.8
2022-08-30T04:49:30.834Z,15.8
2022-08-30T04:50:41.220Z,15.8
2022-08-30T04:51:51.076Z,15.8
2022-08-30T04:53:01.194Z,15.8
2022-08-30T04:54:11.572Z,15.8
2022-08-30T04:55:21.436Z,15.8
2022-08-30T04:56:31.549Z,15.9
2022-08-30T04:57:40.672Z,15.9
2022-08-30T04:58:50.798Z,15.9
2022-08-30T05:00:00.918Z,16
2022-08-30T05:01:10.050Z,16
2022-08-30T05:03:30.284Z,16.1
2022-08-30T05:04:40.409Z,16.1
2022-08-30T05:05:50.523Z,16.2
2022-08-30T05:07:00.640Z,16.2
2022-08-30T05:08:10.758Z,16.3
2022-08-30T05:09:20.866Z,16.5
2022-08-30T05:10:30.990Z,16.5
2022-08-30T05:11:41.115Z,16.6
2022-08-30T05:12:51.220Z,16.6
2022-08-30T05:14:01.353Z,16.6
2022-08-30T05:15:11.466Z,16.6
2022-08-30T05:17:30.714Z,16.7
2022-08-30T05:18:40.831Z,16.7
2022-08-30T05:19:50.957Z,16.7
2022-08-30T05:21:01.351Z,16.7
2022-08-30T05:22:11.183Z,16.7
2022-08-30T05:23:21.300Z,16.6
2022-08-30T05:24:31.422Z,16.6
2022-08-30T05:25:41.546Z,16.6
2022-08-30T05:26:51.649Z,16.5
2022-08-30T05:28:01.766Z,16.5
2022-08-30T05:29:11.884Z,16.5
2022-08-30T05:31:32.128Z,16.4
2022-08-30T05:32:41.261Z,16.4
2022-08-30T05:33:51.372Z,16.4
2022-08-30T05:35:01.498Z,16.3
2022-08-30T05:36:11.603Z,16.3
2022-08-30T05:38:31.846Z,16.2
2022-08-30T05:39:40.983Z,16.2
2022-08-30T05:40:50.123Z,16.2
2022-08-30T05:42:00.251Z,16.2
2022-08-30T05:43:10.355Z,16.1
2022-08-30T05:44:20.487Z,16.1
2022-08-30T05:45:30.592Z,16.1
2022-08-30T05:46:40.711Z,16.1
2022-08-30T05:47:50.831Z,16.1
2022-08-30T05:49:00.954Z,16.1
2022-08-30T05:50:11.061Z,16.1
2022-08-30T05:51:21.180Z,16.2
2022-08-30T05:52:30.320Z,16.2
2022-08-30T05:53:39.464Z,16.2
2022-08-30T05:54:49.586Z,16.3
2022-08-30T05:55:59.691Z,16.4
2022-08-30T05:57:09.813Z,16.5
2022-08-30T05:58:20.191Z,16.6
2022-08-30T05:59:30.044Z,16.7
2022-08-30T06:00:40.170Z,16.9
2022-08-30T06:01:50.276Z,16.9
2022-08-30T06:03:00.405Z,16.9
2022-08-30T06:04:10.802Z,16.9
2022-08-30T06:06:30.761Z,17
2022-08-30T06:07:40.865Z,17
2022-08-30T06:08:49.998Z,17.1
2022-08-30T06:10:00.122Z,17
2022-08-30T06:11:10.236Z,17
2022-08-30T06:12:20.359Z,16.9
2022-08-30T06:13:30.483Z,16.9
2022-08-30T06:15:50.713Z,16.9
2022-08-30T06:16:59.851Z,17
2022-08-30T06:19:19.100Z,17.2
2022-08-30T06:20:29.221Z,17.3
2022-08-30T06:21:39.350Z,17.4
2022-08-30T06:22:49.455Z,17.4
2022-08-30T06:23:59.580Z,17.4
2022-08-30T06:25:09.691Z,17.4
2022-08-30T06:26:20.084Z,17.3
2022-08-30T06:27:29.926Z,17.5
2022-08-30T06:28:40.049Z,17.5
2022-08-30T06:29:50.156Z,17.6
2022-08-30T06:30:59.310Z,17.6
2022-08-30T06:32:08.702Z,17.7
2022-08-30T06:33:18.566Z,17.8
2022-08-30T06:34:28.935Z,17.9
2022-08-30T06:35:38.791Z,18
2022-08-30T06:36:48.913Z,18.2
2022-08-30T06:37:59.020Z,18.2
2022-08-30T06:39:09.149Z,18.2
2022-08-30T06:41:29.378Z,18.2
2022-08-30T06:42:39.510Z,18.3
2022-08-30T06:43:49.626Z,18.3
2022-08-30T06:44:59.735Z,18.1
2022-08-30T06:46:09.851Z,18.1
2022-08-30T06:47:18.997Z,18.1
2022-08-30T06:48:29.097Z,18
2022-08-30T06:49:39.216Z,18
2022-08-30T06:50:49.343Z,18.1
2022-08-30T06:51:59.461Z,18.2
2022-08-30T06:53:09.569Z,18.3
2022-08-30T06:54:19.693Z,18.3
2022-08-30T06:55:30.068Z,18.4
2022-08-30T06:56:39.923Z,18.5
2022-08-30T06:57:50.053Z,18.5
2022-08-30T06:59:00.174Z,18.5
2022-08-30T07:00:10.281Z,18.5
2022-08-30T07:01:20.402Z,18.6
2022-08-30T07:02:29.524Z,18.5
2022-08-30T07:03:39.661Z,18.4
2022-08-30T07:04:49.767Z,18.2
2022-08-30T07:06:00.142Z,18.2
2022-08-30T07:07:10.006Z,18.3
2022-08-30T07:08:20.113Z,18.5
2022-08-30T07:09:30.249Z,18.3
2022-08-30T07:10:40.610Z,18.4
2022-08-30T07:11:50.480Z,18.5
2022-08-30T07:13:00.599Z,18.6
2022-08-30T07:14:10.705Z,18.7
2022-08-30T07:15:20.837Z,18.7
2022-08-30T07:16:31.207Z,18.7
2022-08-30T07:17:40.074Z,18.7
2022-08-30T07:18:50.188Z,18.7
2022-08-30T07:20:00.311Z,18.7
2022-08-30T07:21:10.432Z,18.8
2022-08-30T07:23:30.665Z,19.1
2022-08-30T07:24:40.782Z,19.2
2022-08-30T07:25:50.906Z,19.2
2022-08-30T07:27:01.027Z,19
2022-08-30T07:28:11.136Z,19
2022-08-30T07:29:21.256Z,19.1
2022-08-30T07:30:31.642Z,19
2022-08-30T07:31:41.502Z,18.8
2022-08-30T07:32:50.630Z,18.6
2022-08-30T07:34:00.739Z,18.3
2022-08-30T07:35:10.856Z,18.5
2022-08-30T07:37:31.092Z,18.3
2022-08-30T07:38:41.481Z,18.3
2022-08-30T07:39:51.604Z,18.5
2022-08-30T07:41:01.461Z,18.4
2022-08-30T07:42:11.837Z,18.5
2022-08-30T07:43:21.686Z,18.7
2022-08-30T07:44:31.813Z,18.6
2022-08-30T07:45:41.920Z,18.5
2022-08-30T07:46:52.044Z,18.3
2022-08-30T07:48:01.182Z,18.3
2022-08-30T07:49:11.298Z,18.3
2022-08-30T07:50:21.405Z,18.4
2022-08-30T07:51:31.530Z,18.6
2022-08-30T07:52:41.651Z,18.5
2022-08-30T07:53:52.025Z,18.7
2022-08-30T07:55:01.876Z,19
2022-08-30T07:56:12.003Z,19.3
2022-08-30T07:57:22.119Z,19.6
2022-08-30T07:58:32.244Z,19.7
2022-08-30T07:59:42.623Z,19.9
2022-08-30T08:00:52.473Z,19.8
2022-08-30T08:02:02.596Z,19.6
2022-08-30T08:03:11.729Z,19.6
2022-08-30T08:04:21.851Z,19.7
2022-08-30T08:05:32.217Z,19.7
2022-08-30T08:06:42.084Z,19.7
2022-08-30T08:07:52.453Z,19.6
2022-08-30T08:09:02.316Z,19.5
2022-08-30T08:10:12.437Z,19.4
2022-08-30T08:11:22.556Z,19.4
2022-08-30T08:12:32.675Z,19.5
2022-08-30T08:13:42.779Z,19.5
2022-08-30T08:14:52.908Z,19.6
2022-08-30T08:16:03.026Z,19.2
2022-08-30T08:17:13.148Z,18.7
2022-08-30T08:19:32.392Z,18.8
2022-08-30T08:20:42.511Z,19.1
2022-08-30T08:21:52.629Z,19.2
2022-08-30T08:23:02.741Z,19.3
2022-08-30T08:24:12.854Z,19.6
2022-08-30T08:25:22.978Z,19.8
2022-08-30T08:26:33.107Z,19.6
2022-08-30T08:27:43.477Z,19.4
2022-08-30T08:28:53.591Z,19.4
2022-08-30T08:30:03.453Z,19.5
2022-08-30T08:31:13.830Z,19.6
2022-08-30T08:32:23.686Z,19.6
2022-08-30T08:33:32.827Z,19.8
2022-08-30T08:34:42.934Z,19.6
2022-08-30T08:35:53.063Z,19.7
2022-08-30T08:37:03.183Z,19.6
2022-08-30T08:40:33.517Z,19.8
2022-08-30T08:41:42.675Z,19.8
2022-08-30T08:42:52.059Z,20
2022-08-30T08:44:01.921Z,19.8
2022-08-30T08:45:12.028Z,19.9
2022-08-30T08:47:32.536Z,20
2022-08-30T08:48:42.397Z,20
2022-08-30T08:49:52.515Z,19.9
2022-08-30T08:51:02.882Z,19.9
2022-08-30T08:52:12.754Z,20.1
2022-08-30T08:54:32.982Z,20.2
2022-08-30T08:55:42.111Z,20.1
2022-08-30T08:56:51.260Z,20.2
2022-08-30T08:58:00.658Z,20.3
2022-08-30T08:59:10.525Z,20.3
2022-08-30T09:00:20.635Z,20.2
2022-08-30T09:01:31.013Z,20.1
2022-08-30T09:02:41.130Z,20.1
2022-08-30T09:03:50.993Z,20.2
2022-08-30T09:05:01.097Z,20.2
2022-08-30T09:06:11.223Z,20.3
2022-08-30T09:08:30.482Z,20.2
2022-08-30T09:09:39.620Z,20.3
2022-08-30T09:10:49.730Z,20.3
2022-08-30T09:11:59.851Z,20.2
2022-08-30T09:13:09.967Z,20.3
2022-08-30T09:14:20.076Z,20.2
2022-08-30T09:15:30.456Z,20.3
2022-08-30T09:16:40.324Z,20.2
2022-08-30T09:17:50.431Z,20.2
2022-08-30T09:19:00.555Z,20
2022-08-30T09:20:10.925Z,20.1
2022-08-30T09:21:20.786Z,20.2
2022-08-30T09:22:30.910Z,20.2
2022-08-30T09:23:41.017Z,20.2
2022-08-30T09:24:50.151Z,20.3
2022-08-30T09:26:00.282Z,20.4
2022-08-30T09:27:09.678Z,20.5
2022-08-30T09:28:18.541Z,20.6
2022-08-30T09:29:28.926Z,20.3
2022-08-30T09:30:38.784Z,20.3
2022-08-30T09:31:48.907Z,20.4
2022-08-30T09:32:59.029Z,20.5
2022-08-30T09:34:09.390Z,20.4
2022-08-30T09:36:29.378Z,20.4
2022-08-30T09:37:39.492Z,20.2
2022-08-30T09:38:49.597Z,20.3
2022-08-30T09:39:59.729Z,20.3
2022-08-30T09:41:10.094Z,20.4
2022-08-30T09:43:30.078Z,20.3
2022-08-30T09:44:39.217Z,20.4
2022-08-30T09:45:48.357Z,20.6
2022-08-30T09:46:58.468Z,20.5
2022-08-30T09:48:08.579Z,20.2
2022-08-30T09:49:18.705Z,20.2
2022-08-30T09:50:28.829Z,20.2
2022-08-30T09:52:49.064Z,20.5
2022-08-30T09:53:59.179Z,20.6
2022-08-30T09:55:09.286Z,20.9
2022-08-30T09:56:19.409Z,20.9
2022-08-30T09:57:29.518Z,20.3
2022-08-30T09:58:39.647Z,20.2
2022-08-30T09:59:49.771Z,20.5
2022-08-30T10:00:58.888Z,20.7
2022-08-30T10:02:09.273Z,20.8
2022-08-30T10:04:29.509Z,20.8
2022-08-30T10:05:39.363Z,20.5
2022-08-30T10:06:49.484Z,20.3
2022-08-30T10:07:59.608Z,20.2
2022-08-30T10:09:09.717Z,20.2
2022-08-30T10:11:29.946Z,19.6
2022-08-30T10:12:40.067Z,19.5
2022-08-30T10:13:50.445Z,19.5
2022-08-30T10:15:00.305Z,19.7
2022-08-30T10:16:09.440Z,19.9
2022-08-30T10:20:50.158Z,20.3
2022-08-30T10:22:00.017Z,20.4
2022-08-30T10:23:10.146Z,20.1
2022-08-30T10:25:30.368Z,20.2
2022-08-30T10:26:40.474Z,20.3
2022-08-30T10:27:50.600Z,20.4
2022-08-30T10:29:00.709Z,19.9
2022-08-30T10:30:10.846Z,19.9
2022-08-30T10:31:19.974Z,20.1
2022-08-30T10:32:30.094Z,20.2
2022-08-30T10:33:40.203Z,20.4
2022-08-30T10:34:50.332Z,20.5
2022-08-30T10:36:00.442Z,20.4
2022-08-30T10:37:10.562Z,20.5
2022-08-30T10:38:20.671Z,20.5
2022-08-30T10:39:30.795Z,20.4
2022-08-30T10:40:40.917Z,20.1
2022-08-30T10:41:51.028Z,20.1
2022-08-30T10:43:01.137Z,20.2
2022-08-30T10:44:11.266Z,20.2
2022-08-30T10:45:20.396Z,20.5
2022-08-30T10:46:29.529Z,20.4
2022-08-30T10:47:39.659Z,20.3
2022-08-30T10:48:50.038Z,20.3
2022-08-30T10:49:59.892Z,20.3
2022-08-30T10:51:10.002Z,20.2
2022-08-30T10:52:20.119Z,20.3
2022-08-30T10:53:30.248Z,20.3
2022-08-30T10:54:40.365Z,20.2
2022-08-30T10:55:50.470Z,20.2
2022-08-30T10:56:59.631Z,20
2022-08-30T10:58:08.751Z,20.1
2022-08-30T10:59:18.878Z,20.2
2022-08-30T11:00:28.999Z,20
2022-08-30T11:01:39.105Z,20.2
2022-08-30T11:02:49.233Z,20
2022-08-30T11:03:59.341Z,20.2
2022-08-30T11:05:09.450Z,20.3
2022-08-30T11:07:29.697Z,19.9
2022-08-30T11:08:39.821Z,20
2022-08-30T11:09:49.933Z,20.2
2022-08-30T11:11:00.045Z,20.3
2022-08-30T11:12:10.439Z,20.3
2022-08-30T11:13:19.307Z,20.4
2022-08-30T11:14:29.415Z,20.4
2022-08-30T11:15:39.524Z,20.5
2022-08-30T11:16:49.911Z,20.6
2022-08-30T11:17:59.760Z,20.7
2022-08-30T11:19:09.883Z,20.7
2022-08-30T11:21:30.129Z,20.1
2022-08-30T11:22:40.242Z,20.1
2022-08-30T11:23:50.349Z,20.3
2022-08-30T11:25:00.741Z,20.3
2022-08-30T11:26:10.582Z,20.4
2022-08-30T11:27:20.712Z,20.5
2022-08-30T11:28:29.850Z,20.5
2022-08-30T11:29:39.968Z,20.3
2022-08-30T11:30:50.074Z,20.2
2022-08-30T11:32:00.184Z,20
2022-08-30T11:33:10.310Z,19.3
2022-08-30T11:34:20.420Z,19
2022-08-30T11:35:30.808Z,19
2022-08-30T11:36:40.923Z,19.4
2022-08-30T11:37:51.051Z,19.8
2022-08-30T11:39:00.904Z,20
2022-08-30T11:40:11.007Z,20.3
2022-08-30T11:41:21.128Z,20.7
2022-08-30T11:42:31.256Z,21
2022-08-30T11:43:40.379Z,21
2022-08-30T11:44:50.496Z,20.8
2022-08-30T11:46:00.616Z,20.2
2022-08-30T11:47:11.009Z,19.7
2022-08-30T11:48:20.861Z,19.4
2022-08-30T11:49:30.964Z,19
2022-08-30T11:50:41.089Z,19
2022-08-30T11:51:51.208Z,19.4
2022-08-30T11:53:01.328Z,19.9
2022-08-30T11:54:11.450Z,20.3
2022-08-30T11:56:31.681Z,20.4
2022-08-30T11:57:41.794Z,20.5
2022-08-30T11:58:51.193Z,20.3
2022-08-30T12:00:01.039Z,20.3
2022-08-30T12:01:11.162Z,20.1
2022-08-30T12:02:21.282Z,20.1
2022-08-30T12:03:31.390Z,19.8
2022-08-30T12:04:41.513Z,19.8
2022-08-30T12:05:51.638Z,19.9
2022-08-30T12:07:01.740Z,20.1
2022-08-30T12:08:11.876Z,20.2
2022-08-30T12:09:21.980Z,20.3
2022-08-30T12:10:32.107Z,20.5
2022-08-30T12:11:42.213Z,20.8
2022-08-30T12:12:52.335Z,20.8
2022-08-30T12:14:01.467Z,20.9
2022-08-30T12:15:11.594Z,20.8
2022-08-30T12:17:31.815Z,20.3
2022-08-30T12:21:02.166Z,20.1
2022-08-30T12:22:11.310Z,20.1
2022-08-30T12:23:20.461Z,20.1
2022-08-30T12:24:30.560Z,20.2
2022-08-30T12:25:40.688Z,20.4
2022-08-30T12:26:50.811Z,20.3
2022-08-30T12:28:00.919Z,20.4
2022-08-30T12:29:11.047Z,20.3
2022-08-30T12:31:31.277Z,20.5
2022-08-30T12:32:41.381Z,20.7
2022-08-30T12:33:51.508Z,20.7
2022-08-30T12:35:01.632Z,20.4
2022-08-30T12:36:11.740Z,20.3
2022-08-30T12:37:21.865Z,20.4
2022-08-30T12:38:30.998Z,20.4
2022-08-30T12:39:41.119Z,20.5
2022-08-30T12:40:51.227Z,20.4
2022-08-30T12:42:01.343Z,20
2022-08-30T12:45:31.694Z,19.5
2022-08-30T12:46:41.823Z,19.7
2022-08-30T12:47:50.959Z,19.7
2022-08-30T12:49:00.094Z,19.8
2022-08-30T12:50:09.227Z,19.8
2022-08-30T12:51:19.356Z,19.9
2022-08-30T12:52:29.477Z,20
2022-08-30T12:53:39.593Z,20.2
2022-08-30T12:54:49.699Z,20.3
2022-08-30T12:55:59.831Z,20.2
2022-08-30T12:57:09.940Z,20
2022-08-30T12:58:20.049Z,20
2022-08-30T12:59:30.181Z,20
2022-08-30T13:00:39.321Z,20
2022-08-30T13:01:48.717Z,20
2022-08-30T13:02:58.841Z,19.9
2022-08-30T13:04:08.695Z,20
2022-08-30T13:05:18.805Z,20.1
2022-08-30T13:06:28.931Z,20.1
2022-08-30T13:07:39.036Z,20.1
2022-08-30T13:08:49.162Z,19.9
2022-08-30T13:09:59.287Z,19.8
2022-08-30T13:11:09.393Z,19.7
2022-08-30T13:13:29.635Z,19.7
2022-08-30T13:14:39.756Z,19.9
2022-08-30T13:15:50.136Z,19.9
2022-08-30T13:16:59.007Z,19.8
2022-08-30T13:18:09.114Z,19.6
2022-08-30T13:20:29.628Z,19.6
2022-08-30T13:21:38.508Z,19.7
2022-08-30T13:22:47.633Z,19.7
2022-08-30T13:23:57.756Z,19.8
2022-08-30T13:25:07.868Z,19.8
2022-08-30T13:26:17.989Z,19.9
2022-08-30T13:27:28.114Z,19.9
2022-08-30T13:28:38.223Z,19.9
2022-08-30T13:29:48.343Z,19.9
2022-08-30T13:30:58.453Z,20
2022-08-30T13:32:08.574Z,19.8
2022-08-30T13:33:18.701Z,19.6
2022-08-30T13:34:27.851Z,19.6
2022-08-30T13:35:36.969Z,19.7
2022-08-30T13:36:47.090Z,19.8
2022-08-30T13:37:57.206Z,19.8
2022-08-30T13:39:07.323Z,20
2022-08-30T13:40:17.453Z,20.2
2022-08-30T13:41:27.560Z,20
2022-08-30T13:42:37.681Z,20.1
2022-08-30T13:43:47.805Z,20.1
2022-08-30T13:44:57.925Z,20.3
2022-08-30T13:46:08.033Z,20.6
2022-08-30T13:48:27.288Z,20.8
2022-08-30T13:49:36.425Z,20.8
2022-08-30T13:50:46.548Z,20.8
2022-08-30T13:51:56.657Z,20.9
2022-08-30T13:53:06.792Z,20.7
2022-08-30T13:55:27.013Z,20.5
2022-08-30T13:56:36.168Z,20.7
2022-08-30T13:57:45.561Z,20.6
2022-08-30T13:58:55.419Z,20.5
2022-08-30T14:00:05.525Z,20.5
2022-08-30T14:02:25.758Z,20.5
2022-08-30T14:03:35.878Z,20.4
2022-08-30T14:04:46.000Z,20.5
2022-08-30T14:05:56.127Z,20.5
2022-08-30T14:07:06.493Z,20.5
2022-08-30T14:08:16.351Z,20.7
2022-08-30T14:09:26.475Z,20.5
2022-08-30T14:11:46.706Z,20.2
2022-08-30T14:12:56.098Z,20.2
2022-08-30T14:14:05.956Z,20.3
2022-08-30T14:15:16.060Z,20.2
2022-08-30T14:16:26.191Z,20.3
2022-08-30T14:17:36.567Z,20.4
2022-08-30T14:18:46.420Z,20.5
2022-08-30T14:19:56.543Z,20.6
2022-08-30T14:21:06.647Z,20.6
2022-08-30T14:23:26.896Z,20.7
2022-08-30T14:24:37.018Z,21.2
2022-08-30T14:25:47.398Z,21.6
2022-08-30T14:26:57.252Z,22.4
2022-08-30T14:28:06.368Z,22.7
2022-08-30T14:29:16.500Z,22.8
2022-08-30T14:30:26.878Z,23.8
2022-08-30T14:31:36.995Z,23.8
2022-08-30T14:32:46.841Z,24.5
2022-08-30T14:33:56.968Z,25.3
2022-08-30T14:35:07.092Z,24.7
2022-08-30T14:36:16.227Z,24.7
2022-08-30T14:37:25.358Z,24.3
2022-08-30T14:38:35.484Z,24.1
2022-08-30T14:39:45.594Z,23.6
2022-08-30T14:40:55.978Z,24.1
2022-08-30T14:42:05.829Z,23.8
2022-08-30T14:43:15.953Z,24.9
2022-08-30T14:44:26.056Z,25.4
2022-08-30T14:45:36.182Z,24.7
2022-08-30T14:46:46.309Z,24.6
2022-08-30T14:49:06.537Z,26.1
2022-08-30T14:50:16.643Z,25.9
2022-08-30T14:51:26.775Z,26.2
2022-08-30T14:52:35.905Z,26.7
2022-08-30T14:53:46.289Z,26.5
2022-08-30T14:54:56.133Z,26.2
2022-08-30T14:56:06.262Z,25.5
2022-08-30T14:57:16.379Z,25.9
2022-08-30T14:58:26.491Z,26.2
2022-08-30T14:59:36.606Z,25.9
2022-08-30T15:00:46.733Z,26.4
2022-08-30T15:01:55.876Z,26.2
2022-08-30T15:03:05.006Z,25.1
2022-08-30T15:05:25.240Z,24.9
2022-08-30T15:06:35.358Z,24.4
2022-08-30T15:07:45.734Z,24.5
2022-08-30T15:08:55.585Z,24.3
2022-08-30T15:10:05.695Z,24
2022-08-30T15:11:15.813Z,25
2022-08-30T15:12:25.934Z,25.2
2022-08-30T15:13:36.050Z,25.5
2022-08-30T15:15:56.557Z,24.8
2022-08-30T15:17:05.702Z,25.5
2022-08-30T15:19:24.690Z,26.2
2022-08-30T15:20:34.802Z,27
2022-08-30T15:21:44.913Z,25.6
2022-08-30T15:22:55.036Z,25.4
2022-08-30T15:24:05.417Z,25.6
2022-08-30T15:25:15.271Z,25.1
2022-08-30T15:26:25.393Z,25.4
2022-08-30T15:27:35.497Z,26
2022-08-30T15:28:45.623Z,26.4
2022-08-30T15:29:55.746Z,26.7
2022-08-30T15:31:04.884Z,26.1
2022-08-30T15:32:14.020Z,25.2
2022-08-30T15:33:24.134Z,24.9
2022-08-30T15:34:34.243Z,25.3
2022-08-30T15:35:44.362Z,25.1
2022-08-30T15:36:54.488Z,25.2
2022-08-30T15:38:04.613Z,25
2022-08-30T15:39:14.719Z,25.9
2022-08-30T15:40:24.830Z,25.7
2022-08-30T15:41:34.948Z,24.7
2022-08-30T15:42:45.071Z,24.4
2022-08-30T15:43:55.182Z,24.2
2022-08-30T15:45:05.303Z,24.1
2022-08-30T15:46:15.417Z,23.9
2022-08-30T15:47:24.554Z,23.7
2022-08-30T15:48:34.943Z,23.9
2022-08-30T15:49:44.790Z,24.2
2022-08-30T15:50:54.915Z,23.5
2022-08-30T15:52:05.027Z,23.7
2022-08-30T15:54:25.257Z,23.7
2022-08-30T15:55:35.377Z,23.5
2022-08-30T15:56:45.499Z,24.2
2022-08-30T15:59:05.731Z,24.2
2022-08-30T16:00:15.862Z,24
2022-08-30T16:02:36.081Z,24.9
2022-08-30T16:03:45.234Z,24.8
2022-08-30T16:04:55.342Z,23.8
2022-08-30T16:06:04.478Z,23.6
2022-08-30T16:08:24.727Z,24.6
2022-08-30T16:09:34.832Z,25.9
2022-08-30T16:10:44.960Z,25.7
2022-08-30T16:11:55.073Z,24.7
2022-08-30T16:13:05.194Z,24.5
2022-08-30T16:14:15.310Z,25.3
2022-08-30T16:15:25.432Z,24.9
2022-08-30T16:16:35.535Z,24.9
2022-08-30T16:17:45.661Z,24.2
2022-08-30T16:18:56.039Z,24.2
2022-08-30T16:20:05.887Z,24.3
2022-08-30T16:21:15.035Z,24.7
2022-08-30T16:22:25.140Z,24
2022-08-30T16:23:35.270Z,23.2
2022-08-30T16:24:45.376Z,22.1
2022-08-30T16:25:55.760Z,22.5
2022-08-30T16:27:05.882Z,22.3
2022-08-30T16:29:25.855Z,22.6
2022-08-30T16:30:35.967Z,22.6
2022-08-30T16:31:46.352Z,23
2022-08-30T16:32:55.231Z,22.4
2022-08-30T16:34:04.365Z,22.5
2022-08-30T16:36:24.602Z,22.2
2022-08-30T16:37:34.707Z,22.7
2022-08-30T16:38:45.098Z,22.2
2022-08-30T16:39:54.958Z,21.7
2022-08-30T16:41:05.061Z,21.1
2022-08-30T16:42:15.186Z,21.1
2022-08-30T16:43:25.293Z,21.5
2022-08-30T16:44:34.449Z,21.1
2022-08-30T16:45:44.551Z,20.9
2022-08-30T16:46:54.673Z,20.9
2022-08-30T16:48:05.055Z,20.6
2022-08-30T16:49:14.902Z,20.1
2022-08-30T16:50:25.030Z,19.6
2022-08-30T16:51:35.141Z,19.1